Terminal Aerodrome Forecast
Issued by NWS Nashville, TN

Current Version | Previous Version | Text Only | Print | Product List | Glossary On
Versions: 1 2 3 4 5 6 7 8 9 10 11 12 13 14 15 16 17 18 19 20 21 22 23 24 25 26 27 28
000
FTUS44 KOHX 271700
TAFCSV
TAF
KCSV 271726Z 2718/2818 34007KT P6SM OVC010
     FM272100 33006KT P6SM OVC019
     FM280400 34004KT P6SM BKN030
     FM280800 01003KT P6SM SCT050=

USA.gov is the U.S. government's official web portal to all federal, state and local government web resources and services.